sensor_id;sensor_type;location;lat;lon;timestamp;temperature;humidity
39079;DHT22;24829;49.208;12.080;2024-03-25T00:01:55;4.80;99.90
39079;DHT22;24829;49.208;12.080;2024-03-25T00:04:20;4.80;99.90
39079;DHT22;24829;49.208;12.080;2024-03-25T00:06:48;4.90;99.90
39079;DHT22;24829;49.208;12.080;2024-03-25T00:09:14;4.90;99.90
39079;DHT22;24829;49.208;12.080;2024-03-25T00:11:40;4.90;99.90
39079;DHT22;24829;49.208;12.080;2024-03-25T00:14:06;4.90;99.90
39079;DHT22;24829;49.208;12.080;2024-03-25T00:16:32;4.90;99.90
39079;DHT22;24829;49.208;12.080;2024-03-25T00:18:57;4.90;99.90
39079;DHT22;24829;49.208;12.080;2024-03-25T00:21:23;4.90;99.90
39079;DHT22;24829;49.208;12.080;2024-03-25T00:23:49;4.90;99.90
39079;DHT22;24829;49.208;12.080;2024-03-25T00:26:15;4.90;99.90
39079;DHT22;24829;49.208;12.080;2024-03-25T00:28:40;4.90;99.90
39079;DHT22;24829;49.208;12.080;2024-03-25T00:31:06;4.90;99.90
39079;DHT22;24829;49.208;12.080;2024-03-25T00:33:32;4.90;99.90
39079;DHT22;24829;49.208;12.080;2024-03-25T00:35:58;4.90;99.90
39079;DHT22;24829;49.208;12.080;2024-03-25T00:38:24;4.90;99.90
39079;DHT22;24829;49.208;12.080;2024-03-25T00:40:50;4.90;99.90
39079;DHT22;24829;49.208;12.080;2024-03-25T00:43:16;4.80;99.90
39079;DHT22;24829;49.208;12.080;2024-03-25T00:45:43;4.80;99.90
39079;DHT22;24829;49.208;12.080;2024-03-25T00:48:08;4.80;99.90
39079;DHT22;24829;49.208;12.080;2024-03-25T00:50:34;4.80;99.90
39079;DHT22;24829;49.208;12.080;2024-03-25T00:53:00;4.80;99.90
39079;DHT22;24829;49.208;12.080;2024-03-25T00:55:25;4.80;99.90
39079;DHT22;24829;49.208;12.080;2024-03-25T00:57:51;4.90;99.90
39079;DHT22;24829;49.208;12.080;2024-03-25T01:00:17;4.80;99.90
39079;DHT22;24829;49.208;12.080;2024-03-25T01:02:43;4.80;99.90
39079;DHT22;24829;49.208;12.080;2024-03-25T01:05:09;4.90;99.90
39079;DHT22;24829;49.208;12.080;2024-03-25T01:07:35;4.80;99.90
39079;DHT22;24829;49.208;12.080;2024-03-25T01:10:00;4.80;99.90
39079;DHT22;24829;49.208;12.080;2024-03-25T01:12:26;4.90;99.90
39079;DHT22;24829;49.208;12.080;2024-03-25T01:14:52;4.90;99.90
39079;DHT22;24829;49.208;12.080;2024-03-25T01:17:18;4.90;99.90
39079;DHT22;24829;49.208;12.080;2024-03-25T01:19:43;4.90;99.90
39079;DHT22;24829;49.208;12.080;2024-03-25T01:22:09;5.00;99.90
39079;DHT22;24829;49.208;12.080;2024-03-25T01:24:35;5.00;99.90
39079;DHT22;24829;49.208;12.080;2024-03-25T01:27:00;5.00;99.90
39079;DHT22;24829;49.208;12.080;2024-03-25T01:29:26;4.90;99.90
39079;DHT22;24829;49.208;12.080;2024-03-25T01:31:52;5.00;99.90
39079;DHT22;24829;49.208;12.080;2024-03-25T01:34:18;5.00;99.90
39079;DHT22;24829;49.208;12.080;2024-03-25T01:36:43;5.00;99.90
39079;DHT22;24829;49.208;12.080;2024-03-25T01:39:09;5.00;99.90
39079;DHT22;24829;49.208;12.080;2024-03-25T01:41:35;5.00;99.90
39079;DHT22;24829;49.208;12.080;2024-03-25T01:44:01;5.00;99.90
39079;DHT22;24829;49.208;12.080;2024-03-25T01:46:27;4.90;99.90
39079;DHT22;24829;49.208;12.080;2024-03-25T01:48:53;4.90;99.90
39079;DHT22;24829;49.208;12.080;2024-03-25T01:51:20;4.90;99.90
39079;DHT22;24829;49.208;12.080;2024-03-25T01:53:47;4.90;99.90
39079;DHT22;24829;49.208;12.080;2024-03-25T01:56:14;4.90;99.90
39079;DHT22;24829;49.208;12.080;2024-03-25T01:58:41;4.80;99.90
39079;DHT22;24829;49.208;12.080;2024-03-25T02:01:07;4.80;99.90
39079;DHT22;24829;49.208;12.080;2024-03-25T02:03:35;4.80;99.90
39079;DHT22;24829;49.208;12.080;2024-03-25T02:06:06;4.80;99.90
39079;DHT22;24829;49.208;12.080;2024-03-25T02:08:34;4.70;99.90
39079;DHT22;24829;49.208;12.080;2024-03-25T02:11:00;4.80;99.90
39079;DHT22;24829;49.208;12.080;2024-03-25T02:13:26;4.80;99.90
39079;DHT22;24829;49.208;12.080;2024-03-25T02:15:52;4.80;99.90
39079;DHT22;24829;49.208;12.080;2024-03-25T02:18:20;4.80;99.90
39079;DHT22;24829;49.208;12.080;2024-03-25T02:20:46;4.80;99.90
39079;DHT22;24829;49.208;12.080;2024-03-25T02:23:13;4.90;99.90
39079;DHT22;24829;49.208;12.080;2024-03-25T02:25:41;4.80;99.90
39079;DHT22;24829;49.208;12.080;2024-03-25T02:28:07;4.80;99.90
39079;DHT22;24829;49.208;12.080;2024-03-25T02:30:33;4.80;99.90
39079;DHT22;24829;49.208;12.080;2024-03-25T02:32:58;4.80;99.90
39079;DHT22;24829;49.208;12.080;2024-03-25T02:35:25;4.80;99.90
39079;DHT22;24829;49.208;12.080;2024-03-25T02:37:51;4.80;99.90
39079;DHT22;24829;49.208;12.080;2024-03-25T02:40:19;4.80;99.90
39079;DHT22;24829;49.208;12.080;2024-03-25T02:42:45;4.80;99.90
39079;DHT22;24829;49.208;12.080;2024-03-25T02:45:11;4.80;99.90
39079;DHT22;24829;49.208;12.080;2024-03-25T02:47:37;4.70;99.90
39079;DHT22;24829;49.208;12.080;2024-03-25T02:50:02;4.70;99.90
39079;DHT22;24829;49.208;12.080;2024-03-25T02:52:28;4.60;99.90
39079;DHT22;24829;49.208;12.080;2024-03-25T02:54:54;4.60;99.90
39079;DHT22;24829;49.208;12.080;2024-03-25T02:57:20;4.60;99.90
39079;DHT22;24829;49.208;12.080;2024-03-25T02:59:46;4.70;99.90
39079;DHT22;24829;49.208;12.080;2024-03-25T03:02:11;4.70;99.90
39079;DHT22;24829;49.208;12.080;2024-03-25T03:04:37;4.60;99.90
39079;DHT22;24829;49.208;12.080;2024-03-25T03:07:02;4.60;99.90
39079;DHT22;24829;49.208;12.080;2024-03-25T03:09:28;4.70;99.90
39079;DHT22;24829;49.208;12.080;2024-03-25T03:11:54;4.70;99.90
39079;DHT22;24829;49.208;12.080;2024-03-25T03:14:19;4.70;99.90
39079;DHT22;24829;49.208;12.080;2024-03-25T03:16:45;4.60;99.90
39079;DHT22;24829;49.208;12.080;2024-03-25T03:19:11;4.70;99.90
39079;DHT22;24829;49.208;12.080;2024-03-25T03:21:36;4.70;99.90
39079;DHT22;24829;49.208;12.080;2024-03-25T03:24:03;4.70;99.90
39079;DHT22;24829;49.208;12.080;2024-03-25T03:26:28;4.70;99.90
39079;DHT22;24829;49.208;12.080;2024-03-25T03:28:54;4.70;99.90
39079;DHT22;24829;49.208;12.080;2024-03-25T03:31:20;4.80;99.90
39079;DHT22;24829;49.208;12.080;2024-03-25T03:33:49;4.80;99.90
39079;DHT22;24829;49.208;12.080;2024-03-25T03:36:18;4.80;99.90
39079;DHT22;24829;49.208;12.080;2024-03-25T03:38:44;4.70;99.90
39079;DHT22;24829;49.208;12.080;2024-03-25T03:41:10;4.70;99.90
39079;DHT22;24829;49.208;12.080;2024-03-25T03:43:36;4.80;99.90
39079;DHT22;24829;49.208;12.080;2024-03-25T03:46:02;4.80;99.90
39079;DHT22;24829;49.208;12.080;2024-03-25T03:48:28;4.70;99.90
39079;DHT22;24829;49.208;12.080;2024-03-25T03:50:53;4.70;99.90
39079;DHT22;24829;49.208;12.080;2024-03-25T03:53:19;4.70;99.90
39079;DHT22;24829;49.208;12.080;2024-03-25T03:55:58;4.60;99.90
39079;DHT22;24829;49.208;12.080;2024-03-25T03:58:24;4.50;99.90
39079;DHT22;24829;49.208;12.080;2024-03-25T04:00:50;4.50;99.90
39079;DHT22;24829;49.208;12.080;2024-03-25T04:03:17;4.40;99.90
39079;DHT22;24829;49.208;12.080;2024-03-25T04:05:43;4.40;99.90
39079;DHT22;24829;49.208;12.080;2024-03-25T04:08:08;4.40;99.90
39079;DHT22;24829;49.208;12.080;2024-03-25T04:10:34;4.40;99.90
39079;DHT22;24829;49.208;12.080;2024-03-25T04:13:01;4.50;99.90
39079;DHT22;24829;49.208;12.080;2024-03-25T04:15:26;4.50;99.90
39079;DHT22;24829;49.208;12.080;2024-03-25T04:17:52;4.50;99.90
39079;DHT22;24829;49.208;12.080;2024-03-25T04:20:19;4.50;99.90
39079;DHT22;24829;49.208;12.080;2024-03-25T04:22:45;4.50;99.90
39079;DHT22;24829;49.208;12.080;2024-03-25T04:25:12;4.40;99.90
39079;DHT22;24829;49.208;12.080;2024-03-25T04:27:44;4.50;99.90
39079;DHT22;24829;49.208;12.080;2024-03-25T04:30:10;4.40;99.90
39079;DHT22;24829;49.208;12.080;2024-03-25T04:32:37;4.50;99.90
39079;DHT22;24829;49.208;12.080;2024-03-25T04:35:03;4.50;99.90
39079;DHT22;24829;49.208;12.080;2024-03-25T04:37:29;4.50;99.90
39079;DHT22;24829;49.208;12.080;2024-03-25T04:39:56;4.60;99.90
39079;DHT22;24829;49.208;12.080;2024-03-25T04:42:22;4.60;99.90
39079;DHT22;24829;49.208;12.080;2024-03-25T04:44:48;4.60;99.90
39079;DHT22;24829;49.208;12.080;2024-03-25T04:47:14;4.70;99.90
39079;DHT22;24829;49.208;12.080;2024-03-25T04:49:43;4.60;99.90
39079;DHT22;24829;49.208;12.080;2024-03-25T04:52:09;4.60;99.90
39079;DHT22;24829;49.208;12.080;2024-03-25T04:54:34;4.70;99.90
39079;DHT22;24829;49.208;12.080;2024-03-25T04:57:00;4.70;99.90
39079;DHT22;24829;49.208;12.080;2024-03-25T04:59:25;4.70;99.90
39079;DHT22;24829;49.208;12.080;2024-03-25T05:01:51;4.70;99.90
39079;DHT22;24829;49.208;12.080;2024-03-25T05:04:18;4.70;99.90
39079;DHT22;24829;49.208;12.080;2024-03-25T05:06:44;4.60;99.90
39079;DHT22;24829;49.208;12.080;2024-03-25T05:09:09;4.60;99.90
39079;DHT22;24829;49.208;12.080;2024-03-25T05:11:35;4.60;99.90
39079;DHT22;24829;49.208;12.080;2024-03-25T05:14:01;4.60;99.90
39079;DHT22;24829;49.208;12.080;2024-03-25T05:16:27;4.60;99.90
39079;DHT22;24829;49.208;12.080;2024-03-25T05:18:52;4.60;99.90
39079;DHT22;24829;49.208;12.080;2024-03-25T05:21:18;4.60;99.90
39079;DHT22;24829;49.208;12.080;2024-03-25T05:23:44;4.60;99.90
39079;DHT22;24829;49.208;12.080;2024-03-25T05:26:09;4.60;99.90
39079;DHT22;24829;49.208;12.080;2024-03-25T05:28:35;4.60;99.90
39079;DHT22;24829;49.208;12.080;2024-03-25T05:31:07;4.50;99.90
39079;DHT22;24829;49.208;12.080;2024-03-25T05:33:33;4.50;99.90
39079;DHT22;24829;49.208;12.080;2024-03-25T05:35:59;4.60;99.90
39079;DHT22;24829;49.208;12.080;2024-03-25T05:38:26;4.60;99.90
39079;DHT22;24829;49.208;12.080;2024-03-25T05:40:51;4.60;99.90
39079;DHT22;24829;49.208;12.080;2024-03-25T05:43:17;4.70;99.90
39079;DHT22;24829;49.208;12.080;2024-03-25T05:45:53;4.70;99.90
39079;DHT22;24829;49.208;12.080;2024-03-25T05:48:19;4.70;99.90
39079;DHT22;24829;49.208;12.080;2024-03-25T05:50:45;4.80;99.90
39079;DHT22;24829;49.208;12.080;2024-03-25T05:53:11;4.70;99.90
39079;DHT22;24829;49.208;12.080;2024-03-25T05:55:36;4.80;99.90
39079;DHT22;24829;49.208;12.080;2024-03-25T05:58:02;4.80;99.90
39079;DHT22;24829;49.208;12.080;2024-03-25T06:00:29;4.80;99.90
39079;DHT22;24829;49.208;12.080;2024-03-25T06:02:56;4.80;99.90
39079;DHT22;24829;49.208;12.080;2024-03-25T06:05:21;4.70;99.90
39079;DHT22;24829;49.208;12.080;2024-03-25T06:07:47;4.70;99.90
39079;DHT22;24829;49.208;12.080;2024-03-25T06:10:12;4.70;99.90
39079;DHT22;24829;49.208;12.080;2024-03-25T06:12:38;4.60;99.90
39079;DHT22;24829;49.208;12.080;2024-03-25T06:15:04;4.60;99.90
39079;DHT22;24829;49.208;12.080;2024-03-25T06:17:30;4.60;99.90
39079;DHT22;24829;49.208;12.080;2024-03-25T06:19:56;4.60;99.90
39079;DHT22;24829;49.208;12.080;2024-03-25T06:22:21;4.60;99.90
39079;DHT22;24829;49.208;12.080;2024-03-25T06:24:47;4.70;99.90
39079;DHT22;24829;49.208;12.080;2024-03-25T06:27:14;4.80;99.90
39079;DHT22;24829;49.208;12.080;2024-03-25T06:29:40;4.80;99.90
39079;DHT22;24829;49.208;12.080;2024-03-25T06:32:05;4.90;99.90
39079;DHT22;24829;49.208;12.080;2024-03-25T06:34:50;4.90;99.90
39079;DHT22;24829;49.208;12.080;2024-03-25T06:37:15;5.00;99.90
39079;DHT22;24829;49.208;12.080;2024-03-25T06:39:41;5.10;99.90
39079;DHT22;24829;49.208;12.080;2024-03-25T06:42:07;5.10;99.90
39079;DHT22;24829;49.208;12.080;2024-03-25T06:44:32;5.20;99.90
39079;DHT22;24829;49.208;12.080;2024-03-25T06:46:58;5.20;99.90
39079;DHT22;24829;49.208;12.080;2024-03-25T06:49:24;5.20;99.90
39079;DHT22;24829;49.208;12.080;2024-03-25T06:51:49;5.40;99.90
39079;DHT22;24829;49.208;12.080;2024-03-25T06:54:15;5.50;99.90
39079;DHT22;24829;49.208;12.080;2024-03-25T06:56:40;5.60;99.90
39079;DHT22;24829;49.208;12.080;2024-03-25T06:59:07;5.60;99.90
39079;DHT22;24829;49.208;12.080;2024-03-25T07:01:32;5.70;99.90
39079;DHT22;24829;49.208;12.080;2024-03-25T07:03:58;5.70;99.90
39079;DHT22;24829;49.208;12.080;2024-03-25T07:06:24;5.80;99.90
39079;DHT22;24829;49.208;12.080;2024-03-25T07:08:51;5.90;99.90
39079;DHT22;24829;49.208;12.080;2024-03-25T07:11:16;5.90;99.90
39079;DHT22;24829;49.208;12.080;2024-03-25T07:13:43;6.00;99.90
39079;DHT22;24829;49.208;12.080;2024-03-25T07:16:09;5.90;99.90
39079;DHT22;24829;49.208;12.080;2024-03-25T07:18:34;6.10;99.90
39079;DHT22;24829;49.208;12.080;2024-03-25T07:21:00;6.20;99.90
39079;DHT22;24829;49.208;12.080;2024-03-25T07:23:25;6.30;99.90
39079;DHT22;24829;49.208;12.080;2024-03-25T07:25:51;6.40;99.90
39079;DHT22;24829;49.208;12.080;2024-03-25T07:28:16;6.60;99.90
39079;DHT22;24829;49.208;12.080;2024-03-25T07:30:42;6.70;99.90
39079;DHT22;24829;49.208;12.080;2024-03-25T07:33:08;6.80;99.90
39079;DHT22;24829;49.208;12.080;2024-03-25T07:35:33;6.80;99.90
39079;DHT22;24829;49.208;12.080;2024-03-25T07:38:00;6.70;99.90
39079;DHT22;24829;49.208;12.080;2024-03-25T07:40:28;6.70;99.90
39079;DHT22;24829;49.208;12.080;2024-03-25T07:42:55;6.90;99.90
39079;DHT22;24829;49.208;12.080;2024-03-25T07:45:21;7.00;99.90
39079;DHT22;24829;49.208;12.080;2024-03-25T07:47:47;7.10;99.90
39079;DHT22;24829;49.208;12.080;2024-03-25T07:50:12;7.10;99.90
39079;DHT22;24829;49.208;12.080;2024-03-25T07:52:38;7.00;99.90
39079;DHT22;24829;49.208;12.080;2024-03-25T07:55:09;6.90;99.90
39079;DHT22;24829;49.208;12.080;2024-03-25T07:57:35;6.90;99.90
39079;DHT22;24829;49.208;12.080;2024-03-25T08:00:01;6.90;99.90
39079;DHT22;24829;49.208;12.080;2024-03-25T08:02:26;6.90;99.90
39079;DHT22;24829;49.208;12.080;2024-03-25T08:04:52;6.90;99.90
39079;DHT22;24829;49.208;12.080;2024-03-25T08:07:17;6.70;99.90
39079;DHT22;24829;49.208;12.080;2024-03-25T08:09:43;6.70;99.90
39079;DHT22;24829;49.208;12.080;2024-03-25T08:12:09;6.60;99.90
39079;DHT22;24829;49.208;12.080;2024-03-25T08:14:34;6.50;99.90
39079;DHT22;24829;49.208;12.080;2024-03-25T08:17:00;6.40;99.90
39079;DHT22;24829;49.208;12.080;2024-03-25T08:19:25;6.40;99.90
39079;DHT22;24829;49.208;12.080;2024-03-25T08:21:51;6.40;99.90
39079;DHT22;24829;49.208;12.080;2024-03-25T08:24:16;6.50;99.90
39079;DHT22;24829;49.208;12.080;2024-03-25T08:26:42;6.50;99.90
39079;DHT22;24829;49.208;12.080;2024-03-25T08:29:07;6.60;99.90
39079;DHT22;24829;49.208;12.080;2024-03-25T08:31:33;6.70;99.90
39079;DHT22;24829;49.208;12.080;2024-03-25T08:33:58;6.90;99.90
39079;DHT22;24829;49.208;12.080;2024-03-25T08:36:24;7.20;99.90
39079;DHT22;24829;49.208;12.080;2024-03-25T08:38:50;7.40;99.90
39079;DHT22;24829;49.208;12.080;2024-03-25T08:41:15;7.50;99.90
39079;DHT22;24829;49.208;12.080;2024-03-25T08:43:41;7.50;99.90
39079;DHT22;24829;49.208;12.080;2024-03-25T08:46:06;7.50;99.90
39079;DHT22;24829;49.208;12.080;2024-03-25T08:48:32;7.50;99.90
39079;DHT22;24829;49.208;12.080;2024-03-25T08:50:57;7.50;99.90
39079;DHT22;24829;49.208;12.080;2024-03-25T08:53:23;7.40;99.90
39079;DHT22;24829;49.208;12.080;2024-03-25T08:55:48;7.50;99.90
39079;DHT22;24829;49.208;12.080;2024-03-25T08:58:14;7.60;99.90
39079;DHT22;24829;49.208;12.080;2024-03-25T09:00:41;7.80;99.90
39079;DHT22;24829;49.208;12.080;2024-03-25T09:03:08;8.00;99.90
39079;DHT22;24829;49.208;12.080;2024-03-25T09:05:34;8.30;99.90
39079;DHT22;24829;49.208;12.080;2024-03-25T09:08:00;8.60;99.90
39079;DHT22;24829;49.208;12.080;2024-03-25T09:10:25;8.70;99.90
39079;DHT22;24829;49.208;12.080;2024-03-25T09:13:10;8.70;99.90
39079;DHT22;24829;49.208;12.080;2024-03-25T09:15:35;8.60;99.90
39079;DHT22;24829;49.208;12.080;2024-03-25T09:18:01;8.50;99.90
39079;DHT22;24829;49.208;12.080;2024-03-25T09:20:27;8.50;99.90
39079;DHT22;24829;49.208;12.080;2024-03-25T09:22:52;8.30;99.90
39079;DHT22;24829;49.208;12.080;2024-03-25T09:25:18;8.20;99.90
39079;DHT22;24829;49.208;12.080;2024-03-25T09:27:47;8.10;99.90
39079;DHT22;24829;49.208;12.080;2024-03-25T09:30:14;8.00;99.90
39079;DHT22;24829;49.208;12.080;2024-03-25T09:32:40;8.00;99.90
39079;DHT22;24829;49.208;12.080;2024-03-25T09:35:06;8.00;99.90
39079;DHT22;24829;49.208;12.080;2024-03-25T09:37:32;8.10;99.90
39079;DHT22;24829;49.208;12.080;2024-03-25T09:39:58;8.20;99.90
39079;DHT22;24829;49.208;12.080;2024-03-25T09:42:31;8.30;99.90
39079;DHT22;24829;49.208;12.080;2024-03-25T09:44:59;8.40;99.90
39079;DHT22;24829;49.208;12.080;2024-03-25T09:47:24;8.50;99.90
39079;DHT22;24829;49.208;12.080;2024-03-25T09:49:51;8.50;99.90
39079;DHT22;24829;49.208;12.080;2024-03-25T09:52:19;8.40;99.90
39079;DHT22;24829;49.208;12.080;2024-03-25T09:54:45;8.30;99.90
39079;DHT22;24829;49.208;12.080;2024-03-25T09:57:12;8.40;99.90
39079;DHT22;24829;49.208;12.080;2024-03-25T09:59:37;8.60;99.90
39079;DHT22;24829;49.208;12.080;2024-03-25T10:02:03;8.80;99.90
39079;DHT22;24829;49.208;12.080;2024-03-25T10:04:30;8.90;99.90
39079;DHT22;24829;49.208;12.080;2024-03-25T10:06:56;8.90;99.90
39079;DHT22;24829;49.208;12.080;2024-03-25T10:09:22;8.90;99.90
39079;DHT22;24829;49.208;12.080;2024-03-25T10:11:48;8.90;99.90
39079;DHT22;24829;49.208;12.080;2024-03-25T10:14:17;9.00;99.90
39079;DHT22;24829;49.208;12.080;2024-03-25T10:16:44;9.10;99.90
39079;DHT22;24829;49.208;12.080;2024-03-25T10:19:10;9.20;99.90
39079;DHT22;24829;49.208;12.080;2024-03-25T10:21:36;9.20;99.90
39079;DHT22;24829;49.208;12.080;2024-03-25T10:24:05;9.10;99.90
39079;DHT22;24829;49.208;12.080;2024-03-25T10:26:33;9.10;99.90
39079;DHT22;24829;49.208;12.080;2024-03-25T10:29:07;9.30;99.90
39079;DHT22;24829;49.208;12.080;2024-03-25T10:31:33;9.50;99.90
39079;DHT22;24829;49.208;12.080;2024-03-25T10:33:59;9.60;99.90
39079;DHT22;24829;49.208;12.080;2024-03-25T10:36:25;9.50;99.90
39079;DHT22;24829;49.208;12.080;2024-03-25T10:39:01;9.70;99.90
39079;DHT22;24829;49.208;12.080;2024-03-25T10:41:34;9.80;99.90
39079;DHT22;24829;49.208;12.080;2024-03-25T10:44:04;9.90;99.90
39079;DHT22;24829;49.208;12.080;2024-03-25T10:46:32;10.10;99.90
39079;DHT22;24829;49.208;12.080;2024-03-25T10:49:05;10.20;99.90
39079;DHT22;24829;49.208;12.080;2024-03-25T10:51:33;10.50;99.90
39079;DHT22;24829;49.208;12.080;2024-03-25T10:54:01;10.70;99.90
39079;DHT22;24829;49.208;12.080;2024-03-25T10:56:27;10.90;99.90
39079;DHT22;24829;49.208;12.080;2024-03-25T10:58:53;11.00;99.90
39079;DHT22;24829;49.208;12.080;2024-03-25T11:01:19;11.20;99.90
39079;DHT22;24829;49.208;12.080;2024-03-25T11:03:48;11.30;99.90
39079;DHT22;24829;49.208;12.080;2024-03-25T11:06:15;11.40;99.90
39079;DHT22;24829;49.208;12.080;2024-03-25T11:08:42;11.70;99.90
39079;DHT22;24829;49.208;12.080;2024-03-25T11:11:12;11.80;99.90
39079;DHT22;24829;49.208;12.080;2024-03-25T11:13:38;11.70;99.90
39079;DHT22;24829;49.208;12.080;2024-03-25T11:16:04;11.70;99.90
39079;DHT22;24829;49.208;12.080;2024-03-25T11:18:29;11.60;99.90
39079;DHT22;24829;49.208;12.080;2024-03-25T11:21:02;11.40;99.90
39079;DHT22;24829;49.208;12.080;2024-03-25T11:23:38;11.20;99.70
39079;DHT22;24829;49.208;12.080;2024-03-25T11:26:18;11.20;99.90
39079;DHT22;24829;49.208;12.080;2024-03-25T11:28:44;11.30;99.90
39079;DHT22;24829;49.208;12.080;2024-03-25T11:31:11;11.30;98.90
39079;DHT22;24829;49.208;12.080;2024-03-25T11:33:39;11.30;98.80
39079;DHT22;24829;49.208;12.080;2024-03-25T11:36:05;11.40;99.90
39079;DHT22;24829;49.208;12.080;2024-03-25T11:38:31;11.50;99.30
39079;DHT22;24829;49.208;12.080;2024-03-25T11:40:57;11.50;99.10
39079;DHT22;24829;49.208;12.080;2024-03-25T11:43:23;11.40;98.30
39079;DHT22;24829;49.208;12.080;2024-03-25T11:45:49;11.40;98.30
39079;DHT22;24829;49.208;12.080;2024-03-25T11:48:15;11.40;96.80
39079;DHT22;24829;49.208;12.080;2024-03-25T11:50:44;11.40;98.40
39079;DHT22;24829;49.208;12.080;2024-03-25T11:53:10;11.50;98.60
39079;DHT22;24829;49.208;12.080;2024-03-25T11:55:36;11.60;97.80
39079;DHT22;24829;49.208;12.080;2024-03-25T11:58:01;11.80;96.90
39079;DHT22;24829;49.208;12.080;2024-03-25T12:00:27;11.90;96.70
39079;DHT22;24829;49.208;12.080;2024-03-25T12:02:54;11.80;96.90
39079;DHT22;24829;49.208;12.080;2024-03-25T12:05:20;11.60;96.00
39079;DHT22;24829;49.208;12.080;2024-03-25T12:07:46;11.40;96.80
39079;DHT22;24829;49.208;12.080;2024-03-25T12:10:11;11.20;96.40
39079;DHT22;24829;49.208;12.080;2024-03-25T12:12:55;10.90;96.90
39079;DHT22;24829;49.208;12.080;2024-03-25T12:15:21;10.80;96.90
39079;DHT22;24829;49.208;12.080;2024-03-25T12:17:47;10.70;98.10
39079;DHT22;24829;49.208;12.080;2024-03-25T12:20:13;10.70;98.20
39079;DHT22;24829;49.208;12.080;2024-03-25T12:22:40;10.70;98.10
39079;DHT22;24829;49.208;12.080;2024-03-25T12:25:06;10.50;97.40
39079;DHT22;24829;49.208;12.080;2024-03-25T12:27:33;10.30;98.10
39079;DHT22;24829;49.208;12.080;2024-03-25T12:30:08;10.40;99.50
39079;DHT22;24829;49.208;12.080;2024-03-25T12:32:44;10.60;98.40
39079;DHT22;24829;49.208;12.080;2024-03-25T12:35:14;10.80;96.90
39079;DHT22;24829;49.208;12.080;2024-03-25T12:37:45;10.90;97.50
39079;DHT22;24829;49.208;12.080;2024-03-25T12:40:13;11.10;96.20
39079;DHT22;24829;49.208;12.080;2024-03-25T12:42:40;11.30;96.70
39079;DHT22;24829;49.208;12.080;2024-03-25T12:45:06;11.40;96.20
39079;DHT22;24829;49.208;12.080;2024-03-25T12:47:32;11.50;96.80
39079;DHT22;24829;49.208;12.080;2024-03-25T12:49:58;11.70;96.30
39079;DHT22;24829;49.208;12.080;2024-03-25T12:52:24;11.80;95.80
39079;DHT22;24829;49.208;12.080;2024-03-25T12:54:50;11.90;95.90
39079;DHT22;24829;49.208;12.080;2024-03-25T12:57:15;12.00;95.50
39079;DHT22;24829;49.208;12.080;2024-03-25T12:59:41;12.00;94.60
39079;DHT22;24829;49.208;12.080;2024-03-25T13:02:11;12.00;95.20
39079;DHT22;24829;49.208;12.080;2024-03-25T13:04:38;12.10;95.10
39079;DHT22;24829;49.208;12.080;2024-03-25T13:07:05;12.00;95.60
39079;DHT22;24829;49.208;12.080;2024-03-25T13:09:30;12.10;95.20
39079;DHT22;24829;49.208;12.080;2024-03-25T13:11:57;12.10;93.90
39079;DHT22;24829;49.208;12.080;2024-03-25T13:14:22;12.00;94.40
39079;DHT22;24829;49.208;12.080;2024-03-25T13:16:48;11.90;94.40
39079;DHT22;24829;49.208;12.080;2024-03-25T13:19:14;11.80;94.70
39079;DHT22;24829;49.208;12.080;2024-03-25T13:21:40;11.70;94.50
39079;DHT22;24829;49.208;12.080;2024-03-25T13:24:06;11.70;93.40
39079;DHT22;24829;49.208;12.080;2024-03-25T13:26:32;11.60;95.20
39079;DHT22;24829;49.208;12.080;2024-03-25T13:28:58;11.50;94.40
39079;DHT22;24829;49.208;12.080;2024-03-25T13:31:24;11.50;93.70
39079;DHT22;24829;49.208;12.080;2024-03-25T13:33:49;11.40;92.90
39079;DHT22;24829;49.208;12.080;2024-03-25T13:36:17;11.30;93.30
39079;DHT22;24829;49.208;12.080;2024-03-25T13:38:43;11.40;93.50
39079;DHT22;24829;49.208;12.080;2024-03-25T13:41:08;11.40;93.10
39079;DHT22;24829;49.208;12.080;2024-03-25T13:43:34;11.50;93.70
39079;DHT22;24829;49.208;12.080;2024-03-25T13:46:00;11.60;93.80
39079;DHT22;24829;49.208;12.080;2024-03-25T13:48:25;11.70;94.70
39079;DHT22;24829;49.208;12.080;2024-03-25T13:50:53;11.70;94.30
39079;DHT22;24829;49.208;12.080;2024-03-25T13:53:20;11.60;93.50
39079;DHT22;24829;49.208;12.080;2024-03-25T13:55:45;11.50;94.00
39079;DHT22;24829;49.208;12.080;2024-03-25T13:58:11;11.40;93.80
39079;DHT22;24829;49.208;12.080;2024-03-25T14:00:36;11.20;93.70
39079;DHT22;24829;49.208;12.080;2024-03-25T14:03:03;11.00;94.30
39079;DHT22;24829;49.208;12.080;2024-03-25T14:05:29;11.00;93.50
39079;DHT22;24829;49.208;12.080;2024-03-25T14:07:54;11.00;93.40
39079;DHT22;24829;49.208;12.080;2024-03-25T14:10:21;11.00;93.20
39079;DHT22;24829;49.208;12.080;2024-03-25T14:12:46;11.00;93.60
39079;DHT22;24829;49.208;12.080;2024-03-25T14:15:12;11.00;93.60
39079;DHT22;24829;49.208;12.080;2024-03-25T14:17:37;11.00;93.40
39079;DHT22;24829;49.208;12.080;2024-03-25T14:20:03;11.00;93.30
39079;DHT22;24829;49.208;12.080;2024-03-25T14:22:32;11.00;93.50
39079;DHT22;24829;49.208;12.080;2024-03-25T14:24:58;11.10;93.30
39079;DHT22;24829;49.208;12.080;2024-03-25T14:27:24;11.10;93.90
39079;DHT22;24829;49.208;12.080;2024-03-25T14:29:50;11.20;94.10
39079;DHT22;24829;49.208;12.080;2024-03-25T14:32:19;11.20;94.20
39079;DHT22;24829;49.208;12.080;2024-03-25T14:34:45;11.20;93.00
39079;DHT22;24829;49.208;12.080;2024-03-25T14:37:10;11.20;92.90
39079;DHT22;24829;49.208;12.080;2024-03-25T14:39:36;11.10;92.80
39079;DHT22;24829;49.208;12.080;2024-03-25T14:42:02;10.90;92.40
39079;DHT22;24829;49.208;12.080;2024-03-25T14:44:29;10.90;92.90
39079;DHT22;24829;49.208;12.080;2024-03-25T14:46:54;10.90;92.40
39079;DHT22;24829;49.208;12.080;2024-03-25T14:49:20;10.90;92.20
39079;DHT22;24829;49.208;12.080;2024-03-25T14:51:45;10.90;91.40
39079;DHT22;24829;49.208;12.080;2024-03-25T14:54:11;10.90;92.00
39079;DHT22;24829;49.208;12.080;2024-03-25T14:56:36;10.80;92.80
39079;DHT22;24829;49.208;12.080;2024-03-25T14:59:02;10.80;93.10
39079;DHT22;24829;49.208;12.080;2024-03-25T15:01:28;10.90;92.60
39079;DHT22;24829;49.208;12.080;2024-03-25T15:03:53;10.90;92.80
39079;DHT22;24829;49.208;12.080;2024-03-25T15:06:19;10.90;93.20
39079;DHT22;24829;49.208;12.080;2024-03-25T15:08:45;10.80;92.70
39079;DHT22;24829;49.208;12.080;2024-03-25T15:11:10;10.80;92.60
39079;DHT22;24829;49.208;12.080;2024-03-25T15:13:36;10.80;91.20
39079;DHT22;24829;49.208;12.080;2024-03-25T15:16:05;10.70;91.70
39079;DHT22;24829;49.208;12.080;2024-03-25T15:18:31;10.60;92.60
39079;DHT22;24829;49.208;12.080;2024-03-25T15:21:01;10.50;92.80
39079;DHT22;24829;49.208;12.080;2024-03-25T15:23:26;10.50;92.50